AirNav   Everest Fuels
 
 993 users online  

04FD Tampa General Hospital Brandon Healthplex Heliport
Brandon, Florida, USA

GOING TO BRANDON?


FAA INFORMATION EFFECTIVE 07 NOVEMBER 2019

Location

FAA Identifier: 04FD
Lat/Long: 27-55-45.7400N 082-20-13.1400W
27-55.762333N 082-20.219000W
27.9293722,-82.3369833
(estimated)
Elevation: 37.4 ft. / 11 m (estimated)
From city: 7 miles W of BRANDON, FL
Time zone: UTC -5 (UTC -4 during Daylight Saving Time)
Zip code: 33619

Heliport Operations

Heliport use: Private use. Permission required prior to landing
Activation date: 04/2017
Control tower: no
ARTCC: MIAMI CENTER
FSS: SAINT PETERSBURG FLIGHT SERVICE STATION
Attendance: 
Wind indicator: yes
Segmented circle: no

Heliport Communications

WX AWOS-3 at VDF (5 nm N): 121.125 (813-630-0924)
WX AWOS-3 at TPF (6 nm W): 118.925 (813-251-6824)
WX AWOS-3 at PCM (10 nm NE): 120.025 (813-764-8259)
WX ASOS at TPA (11 nm W): PHONE 813-873-7228
WX AWOS-3PT at LAL (17 nm E): 118.025 (863-834-2030)
WX ASOS at SPG (18 nm SW): 118.875 (727-821-4334)
WX ASOS at PIE (19 nm W): PHONE 727-531-3456

Nearby radio navigation aids

VOR radial/distance  VOR name  Freq  Var
LALr258/17.5LAKELAND VORTAC116.0001E
PIEr091/18.5ST PETERSBURG VORTAC116.4005W
SRQr026/33.6SARASOTA VOR/DME117.0005W

 
NDB name  Hdg/Dist  Freq  Var  ID
COSME138/13.736805WTP - .--.

Heliport Services

Runway Information

Helipad H1

Dimensions: 40 x 40 ft. / 12 x 12 m
Surface: concrete, in good condition
Latitude: 27-55.762333N
Longitude: 082-20.219000W
Elevation: 37.4 ft.
Traffic pattern: leftleft

Heliport Ownership and Management from official FAA records

Ownership: Privately-owned
Owner: HILLSBOROUGH CTY HOSP AUTH
10740 PALM RIVER RD
TAMPA, FL 33619
Phone 813-844-7400
HILLSBOROUGH CTY HOSPITAL AUTH/TAMPA GEN HOSPITAL
Manager: JOHN SCOTT
TAMPA GEN HOSPITAL, P.O. BOX 1289
TAMPA, FL 33601
Phone 813-363-1553

Additional Remarks

FOR CD CTC TAMPA APCH AT 813-878-2528

Instrument Procedures

There are no published instrument procedures at 04FD.

Some nearby airports with instrument procedures:

KVDF - Tampa Executive Airport (5 nm N)
KTPF - Peter O Knight Airport (6 nm W)
KPCM - Plant City Airport (10 nm NE)
KTPA - Tampa International Airport (11 nm W)
KMCF - MacDill Air Force Base (11 nm SW)
KLAL - Lakeland Linder International Airport (17 nm E)
KSPG - Albert Whitted Airport (18 nm SW)
KPIE - St Pete-Clearwater International Airport (19 nm W)
 
Loc | Ops | Rwys | IFR | FBO | Links
Com | Nav | Svcs | Stats | Notes
Aerial photo
No photo
 
Airport distance calculator
Flying to Tampa General Hospital Brandon Healthplex Heliport? Find the distance to fly.

From to 04FD

Sunrise and sunset
Times for 20-Nov-2019
 Local
(UTC-5)
 Zulu
(UTC)
Morning civil twilight06:3111:31
Sunrise06:5611:56
Sunset17:3422:34
Evening civil twilight17:5922:59

Current date and time
Zulu (UTC)  20-Nov-2019 12:53:50
Local (UTC-5)  20-Nov-2019 07:53:50
 
METAR
KVDF 
5nm N 
201235Z AUTO 00000KT 3SM BR CLR 08/08 A3014 RMK AO2
KTPF 
6nm W 
201235Z AUTO 00000KT 5SM HZ CLR A3014 RMK AO2
KPCM 
10nm NE 
201235Z AUTO 00000KT 3SM BR CLR 10/10 A3015 RMK AO2
KTPA 
11nm W 
201153Z 00000KT 10SM FEW250 13/11 A3011 RMK AO2 SLP197 T01330111 10144 20117 53017
KMCF 
11nm SW 
201206Z AUTO 00000KT 5SM BR CLR 11/10 A3011 RMK AO2 VIS 1/8 RWY22 SLP199 FZRANO $
KLAL 
17nm E 
201150Z 00000KT 7SM SKC 07/06 A3012
KPIE 
18nm W 
201153Z 00000KT 10SM CLR 12/10 A3011 RMK AO2 SLP195 60000 T01170100 10128 20111 53017
KSPG 
19nm SW 
201153Z 00000KT 10SM CLR 17/14 A3009 RMK AO2 SLP190 T01670144 10172 20150 53018
TAF
KTPA 
11nm W 
201125Z 2012/2118 VRB03KT P6SM SKC FM201500 35006KT P6SM FEW250 FM201800 31007KT P6SM SKC FM210100 03004KT P6SM SKC FM211500 07006KT P6SM SKC
KMCF 
11nm SW 
200900Z 2009/2115 VRB06KT 9999 SKC QNH3005INS TEMPO 2009/2012 VRB06KT 4800 BR SKC BECMG 2102/2103 02009KT 9999 SKC QNH3016INS TX23/2019Z TN10/2012Z
KLAL 
17nm E 
201125Z 2012/2112 00000KT P6SM SKC TEMPO 2012/2013 4SM BR FM201500 35007KT P6SM SKC FM210000 VRB03KT P6SM SKC
KPIE 
18nm W 
201125Z 2012/2112 VRB03KT P6SM SKC TEMPO 2012/2013 5SM BR FM201500 36006KT P6SM SKC FM201900 33007KT P6SM SKC FM210100 03004KT P6SM SKC
NOTAMs
Click for the latest NOTAMs
NOTAMs are issued by the DoD/FAA and will open in a separate window not controlled by AirNav.

 

 
 

Would you like to see your business listed on this page?

 If your business provides an interesting product or service to pilots, flight crews, aircraft, or users of the Tampa General Hospital Brandon Healthplex Heliport, you should consider listing it here.  To start the listing process, click on the button below
 
Add a business
 

Other Pages about Tampa General Hospital Brandon Healthplex Heliport

Update a link
 
Copyright © AirNav, LLC. All rights reserved. Privacy Policy  Contact